createdAt,value
2018-10-11T00:02:06.316Z,14.54
2018-10-11T00:04:34.867Z,14.56
2018-10-11T00:07:03.410Z,14.57
2018-10-11T00:09:31.947Z,14.48
2018-10-11T00:12:00.501Z,14.53
2018-10-11T00:14:29.033Z,14.55
2018-10-11T00:16:57.537Z,14.55
2018-10-11T00:19:26.094Z,14.54
2018-10-11T00:21:54.609Z,14.47
2018-10-11T00:24:23.134Z,14.43
2018-10-11T00:26:51.653Z,14.41
2018-10-11T00:29:20.170Z,14.36
2018-10-11T00:31:48.699Z,14.32
2018-10-11T00:34:17.254Z,14.29
2018-10-11T00:36:45.767Z,14.22
2018-10-11T00:39:14.302Z,14.19
2018-10-11T00:41:42.809Z,14.19
2018-10-11T00:44:15.011Z,14.17
2018-10-11T00:46:44.787Z,14.09
2018-10-11T00:49:13.323Z,14.08
2018-10-11T00:51:41.868Z,14.02
2018-10-11T00:54:10.625Z,13.94
2018-10-11T00:56:39.533Z,13.88
2018-10-11T00:59:08.677Z,13.85
2018-10-11T01:01:37.185Z,13.79
2018-10-11T01:04:05.726Z,13.82
2018-10-11T01:06:34.255Z,13.74
2018-10-11T01:09:02.812Z,13.68
2018-10-11T01:11:31.320Z,13.66
2018-10-11T01:13:59.845Z,13.73
2018-10-11T01:16:28.363Z,13.73
2018-10-11T01:18:56.902Z,13.77
2018-10-11T01:21:25.397Z,13.69
2018-10-11T01:23:53.977Z,13.65
2018-10-11T01:26:22.465Z,13.54
2018-10-11T01:28:50.995Z,13.48
2018-10-11T01:31:20.415Z,13.48
2018-10-11T01:33:50.222Z,13.43
2018-10-11T01:36:18.789Z,13.45
2018-10-11T01:38:49.291Z,13.47
2018-10-11T01:41:17.736Z,13.47
2018-10-11T01:43:46.308Z,13.53
2018-10-11T01:46:14.799Z,13.47
2018-10-11T01:48:43.346Z,13.42
2018-10-11T01:51:11.894Z,13.46
2018-10-11T01:53:40.418Z,13.43
2018-10-11T01:56:09.394Z,13.44
2018-10-11T01:58:37.941Z,13.43
2018-10-11T02:01:06.712Z,13.40
2018-10-11T02:03:35.214Z,13.36
2018-10-11T02:06:03.741Z,13.30
2018-10-11T02:08:32.234Z,13.28
2018-10-11T02:11:00.766Z,13.28
2018-10-11T02:13:29.270Z,13.26
2018-10-11T02:15:57.794Z,13.31
2018-10-11T02:18:26.286Z,13.27
2018-10-11T02:20:54.814Z,13.19
2018-10-11T02:23:23.317Z,13.11
2018-10-11T02:25:51.846Z,13.10
2018-10-11T02:28:20.488Z,13.07
2018-10-11T02:30:49.031Z,13.00
2018-10-11T02:33:17.530Z,12.96
2018-10-11T02:35:46.098Z,12.93
2018-10-11T02:38:14.599Z,12.94
2018-10-11T02:40:43.136Z,12.92
2018-10-11T02:43:11.630Z,12.90
2018-10-11T02:45:40.285Z,12.88
2018-10-11T02:48:09.131Z,12.92
2018-10-11T02:50:37.652Z,12.93
2018-10-11T02:53:06.230Z,12.97
2018-10-11T02:55:34.823Z,13.00
2018-10-11T02:59:16.484Z,12.96
2018-10-11T03:01:45.048Z,12.86
2018-10-11T03:04:13.593Z,12.77
2018-10-11T03:06:42.250Z,12.75
2018-10-11T03:09:10.781Z,12.73
2018-10-11T03:11:39.456Z,12.69
2018-10-11T03:14:07.973Z,12.63
2018-10-11T03:16:36.517Z,12.61
2018-10-11T03:19:05.053Z,12.68
2018-10-11T03:21:33.573Z,12.68
2018-10-11T03:24:02.074Z,12.68
2018-10-11T03:26:30.597Z,12.68
2018-10-11T03:28:59.114Z,12.65
2018-10-11T03:31:27.652Z,12.61
2018-10-11T03:33:56.183Z,12.61
2018-10-11T03:36:24.726Z,12.60
2018-10-11T03:38:53.232Z,12.57
2018-10-11T03:41:21.770Z,12.50
2018-10-11T03:43:50.319Z,12.51
2018-10-11T03:46:18.901Z,12.49
2018-10-11T03:48:47.385Z,12.47
2018-10-11T03:51:15.903Z,12.45
2018-10-11T03:53:44.409Z,12.43
2018-10-11T03:56:12.932Z,12.47
2018-10-11T03:58:41.470Z,12.46
2018-10-11T04:01:10.020Z,12.49
2018-10-11T04:03:38.573Z,12.47
2018-10-11T04:06:07.152Z,12.43
2018-10-11T04:08:35.659Z,12.35
2018-10-11T04:11:04.192Z,12.32
2018-10-11T04:13:32.696Z,12.30
2018-10-11T04:16:01.210Z,12.21
2018-10-11T04:18:29.699Z,12.17
2018-10-11T04:20:58.233Z,12.22
2018-10-11T04:23:28.955Z,12.29
2018-10-11T04:25:58.224Z,12.40
2018-10-11T04:28:27.711Z,12.34
2018-10-11T04:30:57.054Z,12.45
2018-10-11T04:33:25.933Z,12.45
2018-10-11T04:35:54.547Z,12.47
2018-10-11T04:38:23.056Z,12.52
2018-10-11T04:40:51.605Z,12.51
2018-10-11T04:43:20.185Z,12.46
2018-10-11T04:45:48.689Z,12.43
2018-10-11T04:48:17.213Z,12.35
2018-10-11T04:50:45.754Z,12.34
2018-10-11T04:53:15.155Z,12.26
2018-10-11T04:55:44.720Z,12.25
2018-10-11T04:58:13.245Z,12.18
2018-10-11T05:00:42.015Z,12.13
2018-10-11T05:03:12.037Z,12.08
2018-10-11T05:05:41.047Z,12.05
2018-10-11T05:08:09.589Z,12.01
2018-10-11T05:10:38.090Z,11.99
2018-10-11T05:13:06.736Z,11.96
2018-10-11T05:15:36.703Z,11.97
2018-10-11T05:18:05.832Z,11.93
2018-10-11T05:20:34.355Z,11.94
2018-10-11T05:23:02.898Z,11.99
2018-10-11T05:25:31.424Z,11.98
2018-10-11T05:27:59.994Z,12.02
2018-10-11T05:30:28.533Z,12.02
2018-10-11T05:32:57.447Z,12.06
2018-10-11T05:35:25.948Z,12.05
2018-10-11T05:37:54.500Z,11.98
2018-10-11T05:40:23.035Z,11.94
2018-10-11T05:42:51.599Z,11.98
2018-10-11T05:45:22.933Z,12.05
2018-10-11T05:47:51.494Z,12.06
2018-10-11T05:50:20.165Z,12.10
2018-10-11T05:52:48.901Z,12.22
2018-10-11T05:55:17.457Z,12.42
2018-10-11T05:57:46.037Z,12.52
2018-10-11T06:00:14.539Z,12.53
2018-10-11T06:02:56.027Z,12.53
2018-10-11T06:05:24.549Z,12.50
2018-10-11T06:07:53.170Z,12.52
2018-10-11T06:10:21.725Z,12.57
2018-10-11T06:12:50.277Z,12.63
2018-10-11T06:15:18.837Z,12.68
2018-10-11T06:17:47.395Z,12.82
2018-10-11T06:20:15.938Z,12.86
2018-10-11T06:22:44.544Z,12.96
2018-10-11T06:25:13.095Z,13.06
2018-10-11T06:27:42.445Z,13.18
2018-10-11T06:30:11.605Z,13.29
2018-10-11T06:32:40.171Z,13.35
2018-10-11T06:35:08.716Z,13.42
2018-10-11T06:37:37.282Z,13.51
2018-10-11T06:40:05.834Z,13.57
2018-10-11T06:42:34.782Z,13.68
2018-10-11T06:45:03.985Z,13.74
2018-10-11T06:47:33.030Z,13.82
2018-10-11T06:50:03.076Z,13.89
2018-10-11T06:52:31.589Z,13.98
2018-10-11T06:55:00.156Z,14.01
2018-10-11T06:57:28.655Z,14.05
2018-10-11T06:59:57.178Z,14.15
2018-10-11T07:02:25.684Z,14.27
2018-10-11T07:04:54.211Z,14.33
2018-10-11T07:07:22.777Z,14.42
2018-10-11T07:09:51.292Z,14.48
2018-10-11T07:12:19.818Z,14.55
2018-10-11T07:14:48.326Z,14.61
2018-10-11T07:17:16.872Z,14.68
2018-10-11T07:19:45.639Z,14.78
2018-10-11T07:22:14.179Z,14.80
2018-10-11T07:24:42.710Z,14.87
2018-10-11T07:27:11.244Z,14.98
2018-10-11T07:29:39.750Z,15.01
2018-10-11T07:32:08.553Z,15.10
2018-10-11T07:34:37.113Z,15.17
2018-10-11T07:37:05.625Z,15.27
2018-10-11T07:39:34.125Z,15.37
2018-10-11T07:42:02.654Z,15.44
2018-10-11T07:44:31.154Z,15.52
2018-10-11T07:46:59.687Z,15.61
2018-10-11T07:49:28.193Z,15.77
2018-10-11T07:51:56.722Z,15.83
2018-10-11T07:54:30.373Z,15.94
2018-10-11T07:56:58.960Z,15.99
2018-10-11T07:59:27.459Z,16.05
2018-10-11T08:01:56.000Z,16.12
2018-10-11T08:04:24.514Z,16.17
2018-10-11T08:06:53.030Z,16.21
2018-10-11T08:09:21.553Z,16.31
2018-10-11T08:11:50.193Z,16.38
2018-10-11T08:14:18.946Z,16.42
2018-10-11T08:16:48.224Z,16.48
2018-10-11T08:19:16.836Z,16.50
2018-10-11T08:21:45.191Z,16.53
2018-10-11T08:24:13.721Z,16.71
2018-10-11T08:26:42.239Z,16.75
2018-10-11T08:29:10.775Z,16.80
2018-10-11T08:31:46.054Z,16.97
2018-10-11T08:34:14.542Z,16.94
2018-10-11T08:36:43.055Z,17.06
2018-10-11T08:39:12.926Z,17.22
2018-10-11T08:41:41.530Z,17.40
2018-10-11T08:44:11.496Z,17.52
2018-10-11T08:46:40.027Z,17.52
2018-10-11T08:49:08.631Z,17.52
2018-10-11T08:51:37.477Z,17.56
2018-10-11T08:54:11.363Z,17.73
2018-10-11T08:56:39.868Z,17.82
2018-10-11T08:59:08.476Z,17.97
2018-10-11T09:01:36.963Z,17.95
2018-10-11T09:04:05.664Z,17.98
2018-10-11T09:06:34.076Z,18.03
2018-10-11T09:09:02.644Z,18.18
2018-10-11T09:11:31.209Z,18.20
2018-10-11T09:13:59.725Z,18.29
2018-10-11T09:16:28.245Z,18.29
2018-10-11T09:18:56.768Z,18.39
2018-10-11T09:21:25.298Z,18.46
2018-10-11T09:23:53.806Z,18.52
2018-10-11T09:26:22.346Z,18.74
2018-10-11T09:28:50.877Z,18.72
2018-10-11T09:31:19.409Z,18.89
2018-10-11T09:33:47.909Z,19.09
2018-10-11T09:36:16.501Z,19.13
2018-10-11T09:38:45.022Z,19.18
2018-10-11T09:41:13.560Z,19.19
2018-10-11T09:43:42.191Z,19.23
2018-10-11T09:46:10.733Z,19.26
2018-10-11T09:48:39.293Z,19.22
2018-10-11T09:51:08.876Z,19.15
2018-10-11T09:53:37.389Z,19.25
2018-10-11T09:56:06.025Z,19.59
2018-10-11T09:58:34.533Z,19.67
2018-10-11T10:01:08.299Z,19.60
2018-10-11T10:03:37.091Z,19.39
2018-10-11T10:06:05.702Z,19.39
2018-10-11T10:08:34.227Z,19.58
2018-10-11T10:11:02.777Z,19.88
2018-10-11T10:13:31.289Z,19.90
2018-10-11T10:15:59.925Z,19.84
2018-10-11T10:18:28.510Z,19.99
2018-10-11T10:20:57.057Z,20.05
2018-10-11T10:23:25.635Z,20.11
2018-10-11T10:25:54.159Z,20.20
2018-10-11T10:28:22.684Z,20.37
2018-10-11T10:30:52.520Z,20.34
2018-10-11T10:33:22.079Z,20.41
2018-10-11T10:35:50.677Z,20.35
2018-10-11T10:38:19.481Z,20.44
2018-10-11T10:40:47.994Z,20.47
2018-10-11T10:43:16.530Z,20.41
2018-10-11T10:45:45.037Z,20.48
2018-10-11T10:48:13.628Z,20.59
2018-10-11T10:50:42.163Z,20.63
2018-10-11T10:53:10.698Z,20.63
2018-10-11T10:55:39.253Z,20.71
2018-10-11T10:58:07.854Z,20.93
2018-10-11T11:00:36.369Z,21.10
2018-10-11T11:03:04.914Z,21.13
2018-10-11T11:05:33.435Z,21.12
2018-10-11T11:08:01.987Z,21.11
2018-10-11T11:10:30.478Z,21.18
2018-10-11T11:12:59.062Z,20.95
2018-10-11T11:15:27.598Z,21.04
2018-10-11T11:17:56.126Z,21.21
2018-10-11T11:20:24.661Z,21.35
2018-10-11T11:22:53.194Z,21.41
2018-10-11T11:25:21.767Z,21.47
2018-10-11T11:27:50.269Z,21.55
2018-10-11T11:30:18.771Z,21.67
2018-10-11T11:32:47.274Z,21.59
2018-10-11T11:35:15.816Z,21.59
2018-10-11T11:37:44.384Z,21.50
2018-10-11T11:40:12.915Z,21.43
2018-10-11T11:42:41.422Z,21.41
2018-10-11T11:45:09.953Z,21.46
2018-10-11T11:47:38.457Z,21.59
2018-10-11T11:50:07.145Z,21.67
2018-10-11T11:52:35.648Z,21.73
2018-10-11T11:55:04.181Z,21.84
2018-10-11T11:57:32.673Z,21.90
2018-10-11T12:00:01.205Z,22.00
2018-10-11T12:02:29.731Z,21.97
2018-10-11T12:04:58.330Z,22.06
2018-10-11T12:07:26.829Z,22.04
2018-10-11T12:09:55.353Z,22.05
2018-10-11T12:13:04.834Z,21.98
2018-10-11T12:15:34.076Z,22.20
2018-10-11T12:18:03.581Z,22.22
2018-10-11T12:20:33.218Z,22.24
2018-10-11T12:23:03.038Z,22.13
2018-10-11T12:25:31.857Z,22.10
2018-10-11T12:28:00.369Z,22.10
2018-10-11T12:30:29.016Z,22.20
2018-10-11T12:32:57.536Z,22.19
2018-10-11T12:35:26.446Z,22.25
2018-10-11T12:37:54.978Z,22.22
2018-10-11T12:40:24.226Z,22.33
2018-10-11T12:42:52.063Z,22.58
2018-10-11T12:45:20.738Z,22.52
2018-10-11T12:47:49.298Z,22.55
2018-10-11T12:50:17.835Z,22.52
2018-10-11T12:52:46.398Z,22.37
2018-10-11T12:55:14.912Z,22.36
2018-10-11T12:57:43.549Z,22.38
2018-10-11T13:00:13.846Z,22.51
2018-10-11T13:02:42.548Z,22.49
2018-10-11T13:05:11.102Z,22.39
2018-10-11T13:07:40.161Z,22.34
2018-10-11T13:10:08.835Z,22.33
2018-10-11T13:12:37.375Z,22.44
2018-10-11T13:15:06.355Z,22.31
2018-10-11T13:17:40.130Z,22.37
2018-10-11T13:20:04.008Z,22.45
2018-10-11T13:22:32.561Z,22.48
2018-10-11T13:25:01.093Z,22.38
2018-10-11T13:27:29.614Z,22.33
2018-10-11T13:29:58.138Z,22.38
2018-10-11T13:32:26.678Z,22.41
2018-10-11T13:34:55.228Z,22.42
2018-10-11T13:37:23.781Z,22.41
2018-10-11T13:39:56.992Z,22.43
2018-10-11T13:42:20.854Z,22.40
2018-10-11T13:44:49.364Z,22.44
2018-10-11T13:47:17.941Z,22.39
2018-10-11T13:49:46.467Z,22.33
2018-10-11T13:52:17.049Z,22.30
2018-10-11T13:54:43.565Z,22.32
2018-10-11T13:57:12.099Z,22.38
2018-10-11T13:59:40.626Z,22.41
2018-10-11T14:02:09.192Z,22.37
2018-10-11T14:04:37.807Z,22.38
2018-10-11T14:07:06.257Z,22.39
2018-10-11T14:09:34.781Z,22.42
2018-10-11T14:12:03.285Z,22.27
2018-10-11T14:14:31.833Z,22.26
2018-10-11T14:17:00.346Z,22.28
2018-10-11T14:19:28.875Z,22.27
2018-10-11T14:21:58.129Z,22.29
2018-10-11T14:24:27.007Z,22.23
2018-10-11T14:26:55.526Z,22.15
2018-10-11T14:29:24.045Z,22.15
2018-10-11T14:31:52.547Z,22.13
2018-10-11T14:34:21.091Z,22.10
2018-10-11T14:36:49.719Z,22.12
2018-10-11T14:39:18.166Z,22.01
2018-10-11T14:41:46.682Z,22.03
2018-10-11T14:44:15.214Z,21.98
2018-10-11T14:46:43.722Z,21.96
2018-10-11T14:49:12.288Z,21.90
2018-10-11T14:51:44.475Z,21.82
2018-10-11T14:54:09.394Z,21.85
2018-10-11T14:56:37.926Z,21.79
2018-10-11T14:59:06.449Z,21.73
2018-10-11T15:01:34.987Z,21.77
2018-10-11T15:04:03.497Z,21.65
2018-10-11T15:06:32.034Z,21.62
2018-10-11T15:09:00.542Z,21.59
2018-10-11T15:11:29.207Z,21.59
2018-10-11T15:13:57.620Z,21.59
2018-10-11T15:16:26.159Z,21.53
2018-10-11T15:18:54.679Z,21.41
2018-10-11T15:21:23.214Z,21.38
2018-10-11T15:23:51.765Z,21.31
2018-10-11T15:26:20.289Z,21.17
2018-10-11T15:28:48.789Z,21.15
2018-10-11T15:31:17.327Z,21.14
2018-10-11T15:33:45.866Z,21.13
2018-10-11T15:36:14.404Z,21.05
2018-10-11T15:38:42.905Z,21.01
2018-10-11T15:41:11.443Z,20.97
2018-10-11T15:43:39.955Z,20.90
2018-10-11T15:46:08.534Z,20.79
2018-10-11T15:48:37.048Z,20.70
2018-10-11T15:51:05.582Z,20.68
2018-10-11T15:53:34.216Z,20.68
2018-10-11T15:56:02.749Z,20.67
2018-10-11T15:58:31.265Z,20.55
2018-10-11T16:00:59.837Z,20.46
2018-10-11T16:03:28.370Z,20.46
2018-10-11T16:05:56.943Z,20.40
2018-10-11T16:08:25.470Z,20.30
2018-10-11T16:10:54.348Z,20.29
2018-10-11T16:13:24.469Z,20.23
2018-10-11T16:15:53.146Z,20.15
2018-10-11T16:18:25.500Z,20.05
2018-10-11T16:20:54.034Z,19.89
2018-10-11T16:23:22.590Z,19.65
2018-10-11T16:25:51.169Z,19.50
2018-10-11T16:28:19.713Z,19.42
2018-10-11T16:30:48.214Z,19.24
2018-10-11T16:33:16.822Z,19.08
2018-10-11T16:35:45.374Z,18.90
2018-10-11T16:38:13.901Z,18.70
2018-10-11T16:40:42.494Z,18.49
2018-10-11T16:43:11.072Z,18.27
2018-10-11T16:45:39.592Z,18.02
2018-10-11T16:48:08.133Z,17.71
2018-10-11T16:50:36.653Z,17.46
2018-10-11T16:53:05.176Z,17.28
2018-10-11T16:55:33.689Z,17.06
2018-10-11T16:58:02.308Z,16.78
2018-10-11T17:00:30.809Z,16.55
2018-10-11T17:02:59.349Z,16.32
2018-10-11T17:05:27.848Z,16.15
2018-10-11T17:07:56.479Z,15.96
2018-10-11T17:10:24.939Z,15.73
2018-10-11T17:12:53.477Z,15.46
2018-10-11T17:15:22.155Z,15.26
2018-10-11T17:17:50.717Z,14.97
2018-10-11T17:20:19.227Z,14.83
2018-10-11T17:22:47.806Z,14.72
2018-10-11T17:25:16.321Z,14.62
2018-10-11T17:27:44.842Z,14.51
2018-10-11T17:30:13.370Z,14.39
2018-10-11T17:32:41.901Z,14.33
2018-10-11T17:35:10.485Z,14.12
2018-10-11T17:37:38.995Z,13.89
2018-10-11T17:40:07.539Z,13.73
2018-10-11T17:42:36.062Z,13.59
2018-10-11T17:45:04.582Z,13.50
2018-10-11T17:47:33.109Z,13.37
2018-10-11T17:50:01.619Z,13.26
2018-10-11T17:52:30.189Z,13.22
2018-10-11T17:54:59.150Z,13.16
2018-10-11T17:57:27.926Z,13.08
2018-10-11T17:59:56.445Z,13.00
2018-10-11T18:02:24.958Z,12.92
2018-10-11T18:04:54.258Z,12.84
2018-10-11T18:07:22.801Z,12.78
2018-10-11T18:09:51.362Z,12.73
2018-10-11T18:12:19.856Z,12.60
2018-10-11T18:14:48.402Z,12.56
2018-10-11T18:17:16.933Z,12.59
2018-10-11T18:19:45.524Z,12.58
2018-10-11T18:22:14.045Z,12.55
2018-10-11T18:24:42.590Z,12.50
2018-10-11T18:27:11.091Z,12.43
2018-10-11T18:29:41.654Z,12.29
2018-10-11T18:32:10.273Z,12.10
2018-10-11T18:34:39.124Z,11.96
2018-10-11T18:37:07.973Z,11.90
2018-10-11T18:39:36.497Z,11.93
2018-10-11T18:42:05.037Z,11.91
2018-10-11T18:44:33.576Z,11.85
2018-10-11T18:47:02.094Z,11.77
2018-10-11T18:49:30.639Z,11.77
2018-10-11T18:51:59.158Z,11.72
2018-10-11T18:54:27.697Z,11.50
2018-10-11T18:56:56.217Z,11.31
2018-10-11T18:59:24.738Z,11.22
2018-10-11T19:01:53.246Z,11.16
2018-10-11T19:04:21.769Z,11.14
2018-10-11T19:06:50.293Z,11.13
2018-10-11T19:09:18.825Z,11.05
2018-10-11T19:11:47.359Z,11.03
2018-10-11T19:14:15.895Z,10.97
2018-10-11T19:16:44.429Z,10.86
2018-10-11T19:19:12.957Z,10.64
2018-10-11T19:21:41.465Z,10.46
2018-10-11T19:24:10.010Z,10.35
2018-10-11T19:26:38.544Z,10.29
2018-10-11T19:29:07.090Z,10.29
2018-10-11T19:31:35.597Z,10.34
2018-10-11T19:34:04.198Z,10.43
2018-10-11T19:36:32.722Z,10.40
2018-10-11T19:39:01.265Z,10.32
2018-10-11T19:41:29.822Z,10.26
2018-10-11T19:43:58.357Z,10.30
2018-10-11T19:46:26.857Z,10.37
2018-10-11T19:48:55.392Z,10.35
2018-10-11T19:51:23.913Z,10.30
2018-10-11T19:53:52.456Z,10.26
2018-10-11T19:56:20.982Z,10.21
2018-10-11T19:58:49.493Z,10.18
2018-10-11T20:01:18.094Z,10.10
2018-10-11T20:03:46.620Z,10.08
2018-10-11T20:06:15.209Z,10.10
2018-10-11T20:08:43.721Z,10.13
2018-10-11T20:11:12.259Z,10.10
2018-10-11T20:13:40.774Z,10.04
2018-10-11T20:16:09.312Z,9.93
2018-10-11T20:18:38.211Z,9.82
2018-10-11T20:21:07.135Z,9.79
2018-10-11T20:23:35.760Z,9.84
2018-10-11T20:26:04.391Z,9.89
2018-10-11T20:28:32.900Z,9.90
2018-10-11T20:31:01.432Z,9.87
2018-10-11T20:33:29.993Z,9.82
2018-10-11T20:35:58.537Z,9.78
2018-10-11T20:38:27.689Z,9.76
2018-10-11T20:40:56.302Z,9.77
2018-10-11T20:43:24.836Z,9.74
2018-10-11T20:45:53.366Z,9.70
2018-10-11T20:48:21.872Z,9.67
2018-10-11T20:50:50.411Z,9.61
2018-10-11T20:53:18.921Z,9.51
2018-10-11T20:55:47.463Z,9.45
2018-10-11T20:58:15.969Z,9.49
2018-10-11T21:00:44.548Z,9.53
2018-10-11T21:03:13.090Z,9.37
2018-10-11T21:05:41.652Z,9.26
2018-10-11T21:08:10.221Z,9.22
2018-10-11T21:10:38.760Z,9.21
2018-10-11T21:13:07.296Z,9.17
2018-10-11T21:15:35.828Z,9.20
2018-10-11T21:18:04.341Z,9.25
2018-10-11T21:20:32.966Z,9.30
2018-10-11T21:23:01.418Z,9.36
2018-10-11T21:25:29.968Z,9.34
2018-10-11T21:27:58.534Z,9.26
2018-10-11T21:30:27.071Z,9.27
2018-10-11T21:32:55.584Z,9.29
2018-10-11T21:35:24.153Z,9.33
2018-10-11T21:37:52.650Z,9.52
2018-10-11T21:40:21.256Z,9.56
2018-10-11T21:42:49.759Z,9.53
2018-10-11T21:45:18.293Z,9.39
2018-10-11T21:47:46.801Z,9.38
2018-10-11T21:50:15.338Z,9.56
2018-10-11T21:52:43.935Z,9.71
2018-10-11T21:55:12.447Z,9.69
2018-10-11T21:57:40.954Z,9.51
2018-10-11T22:00:09.717Z,9.26
2018-10-11T22:02:38.218Z,9.13
2018-10-11T22:05:06.758Z,8.92
2018-10-11T22:07:35.281Z,8.86
2018-10-11T22:10:03.827Z,8.84
2018-10-11T22:12:32.365Z,8.81
2018-10-11T22:15:01.084Z,8.76
2018-10-11T22:17:29.429Z,8.53
2018-10-11T22:19:57.934Z,8.50
2018-10-11T22:22:26.472Z,8.58
2018-10-11T22:24:54.969Z,8.69
2018-10-11T22:27:23.525Z,8.73
2018-10-11T22:29:52.030Z,8.70
2018-10-11T22:32:20.563Z,8.50
2018-10-11T22:34:49.085Z,8.52
2018-10-11T22:37:17.620Z,8.51
2018-10-11T22:39:46.118Z,8.51
2018-10-11T22:42:14.642Z,8.52
2018-10-11T22:44:43.183Z,8.61
2018-10-11T22:47:11.729Z,8.78
2018-10-11T22:49:40.254Z,8.89
2018-10-11T22:52:08.786Z,8.98
2018-10-11T22:54:37.302Z,8.96
2018-10-11T22:57:05.862Z,8.75
2018-10-11T22:59:34.384Z,8.64
2018-10-11T23:02:02.933Z,8.51
2018-10-11T23:04:31.449Z,8.55
2018-10-11T23:06:59.987Z,8.63
2018-10-11T23:09:28.498Z,8.51
2018-10-11T23:11:57.072Z,8.36
2018-10-11T23:14:25.652Z,8.35
2018-10-11T23:16:54.161Z,8.40
2018-10-11T23:19:22.661Z,8.49
2018-10-11T23:21:51.184Z,8.48
2018-10-11T23:24:19.689Z,8.39
2018-10-11T23:26:48.267Z,8.39
2018-10-11T23:29:16.767Z,8.38
2018-10-11T23:31:45.312Z,8.31
2018-10-11T23:34:13.851Z,8.19
2018-10-11T23:36:42.376Z,8.14
2018-10-11T23:39:12.101Z,8.19
2018-10-11T23:41:41.418Z,8.19
2018-10-11T23:44:10.412Z,8.19
2018-10-11T23:46:39.265Z,8.16
2018-10-11T23:49:07.799Z,8.08
2018-10-11T23:51:36.335Z,8.02
2018-10-11T23:54:04.861Z,8.01
2018-10-11T23:56:33.401Z,7.91
2018-10-11T23:59:01.931Z,7.81
